Time;durP1;ratioP1;P1;durP2;ratioP2;P2;SDS_P1;SDS_P2;PMS_P1;PMS_P2;Temp;Humidity;BMP_temperature;BMP_pressure;BME280_temperature;BME280_humidity;BME280_pressure;Samples;Min_cycle;Max_cycle;Signal;HPM_P1;HPM_P2
2023/09/18 00:01:21;;;;;;;8.18;6.82;;;;;19.20;96065.00;;;;8315808;28;20209;-69
2023/09/18 00:05:29;;;;;;;7.82;6.18;;;;;19.30;96056.00;;;;8306368;28;20224;-69
2023/09/18 00:09:32;;;;;;;8.40;6.18;;;;;19.30;96052.00;;;;8317790;28;20229;-69
2023/09/18 00:13:37;;;;;;;8.07;6.20;;;;;19.30;96046.00;;;;8318163;28;20656;-69
2023/09/18 00:17:40;;;;;;;10.45;6.25;;;;;19.30;96047.00;;;;8316965;28;20723;-69
2023/09/18 00:21:43;;;;;;;7.85;6.72;;;;;19.30;96040.00;;;;8314115;28;20225;-68
2023/09/18 00:25:49;;;;;;;7.32;6.32;;;;;19.30;96028.00;;;;8315643;28;20289;-69
2023/09/18 00:29:54;;;;;;;9.35;6.80;;;;;19.30;96018.00;;;;8317635;28;20773;-69
2023/09/18 00:33:57;;;;;;;7.68;6.63;;;;;19.30;96014.00;;;;8317778;28;20220;-69
2023/09/18 00:38:03;;;;;;;10.38;6.90;;;;;19.30;96010.00;;;;8308841;28;20212;-69
2023/09/18 00:42:07;;;;;;;8.15;6.88;;;;;19.30;96004.00;;;;8316594;28;20208;-69
2023/09/18 00:46:12;;;;;;;7.72;6.90;;;;;19.30;96002.00;;;;8314746;28;20229;-69
2023/09/18 00:50:18;;;;;;;7.70;6.53;;;;;19.30;95999.00;;;;8313669;28;20229;-69
2023/09/18 00:54:22;;;;;;;8.15;6.75;;;;;19.30;95998.00;;;;8309600;28;20202;-69
2023/09/18 00:58:28;;;;;;;8.05;6.53;;;;;19.30;95988.00;;;;8313198;28;20821;-69
2023/09/18 01:02:33;;;;;;;7.90;6.80;;;;;19.30;95985.00;;;;8304598;28;20252;-69
2023/09/18 01:06:36;;;;;;;8.05;6.93;;;;;19.30;95999.00;;;;8313712;28;20946;-69
2023/09/18 01:10:57;;;;;;;8.88;7.53;;;;;19.30;95989.00;;;;8312399;28;20231;-70
2023/09/18 01:15:07;;;;;;;10.30;7.65;;;;;19.20;95992.00;;;;8312376;28;20745;-69
2023/09/18 01:19:16;;;;;;;9.73;7.97;;;;;19.20;95979.00;;;;8310817;28;20198;-69
2023/09/18 01:23:23;;;;;;;8.95;6.93;;;;;19.20;95976.00;;;;8312933;28;20193;-69
2023/09/18 01:27:29;;;;;;;9.48;7.30;;;;;19.20;95961.00;;;;8312764;28;20201;-69
2023/09/18 01:31:34;;;;;;;10.25;7.03;;;;;19.20;95965.00;;;;8308436;28;20213;-70
2023/09/18 01:35:38;;;;;;;14.70;7.65;;;;;19.20;95948.00;;;;8310564;28;20206;-69
2023/09/18 01:39:51;;;;;;;9.30;7.35;;;;;19.20;95941.00;;;;8308432;28;20923;-69
2023/09/18 01:44:00;;;;;;;8.57;7.25;;;;;19.20;95937.00;;;;8308980;28;20314;-70
2023/09/18 01:48:05;;;;;;;8.50;7.18;;;;;19.20;95945.00;;;;8310927;28;20205;-69
2023/09/18 01:52:12;;;;;;;10.52;7.18;;;;;19.20;95943.00;;;;8305226;28;20229;-69
2023/09/18 01:56:19;;;;;;;7.57;6.70;;;;;19.30;95930.00;;;;8310511;28;20189;-69
2023/09/18 02:00:23;;;;;;;9.18;6.90;;;;;19.30;95937.00;;;;8308999;28;20274;-69
2023/09/18 02:04:33;;;;;;;9.02;7.55;;;;;19.30;95930.00;;;;8312217;28;20275;-70
2023/09/18 02:09:04;;;;;;;8.93;6.82;;;;;19.20;95923.00;;;;8310727;28;20233;-69
2023/09/18 02:13:10;;;;;;;8.68;7.22;;;;;19.20;95926.00;;;;8310731;28;20243;-69
2023/09/18 02:17:13;;;;;;;11.10;7.43;;;;;19.20;95926.00;;;;8309417;28;20292;-69
2023/09/18 02:21:21;;;;;;;9.88;7.50;;;;;19.20;95922.00;;;;8310028;28;20197;-69
2023/09/18 02:25:24;;;;;;;9.27;7.72;;;;;19.20;95925.00;;;;8310116;28;20643;-70
2023/09/18 02:29:30;;;;;;;10.98;7.40;;;;;19.10;95916.00;;;;8311380;28;20746;-70
2023/09/18 02:33:35;;;;;;;11.80;7.70;;;;;19.10;95919.00;;;;8311585;28;20751;-69
2023/09/18 02:37:38;;;;;;;8.52;7.45;;;;;19.00;95916.00;;;;8313333;28;20201;-69
2023/09/18 02:41:46;;;;;;;10.73;6.85;;;;;19.00;95921.00;;;;8312482;28;20559;-69
2023/09/18 02:45:51;;;;;;;9.77;7.60;;;;;19.00;95918.00;;;;8302752;28;20911;-69
2023/09/18 02:49:57;;;;;;;8.95;7.50;;;;;18.90;95906.00;;;;8311796;28;20221;-69
2023/09/18 02:54:02;;;;;;;8.40;7.05;;;;;18.90;95912.00;;;;8310931;28;20205;-70
2023/09/18 02:58:05;;;;;;;11.50;7.53;;;;;18.90;95912.00;;;;8306173;28;20705;-70
2023/09/18 03:06:54;;;;;;;10.38;7.50;;;;;18.80;95904.00;;;;8310339;28;20216;-69
2023/09/18 03:11:00;;;;;;;10.57;7.68;;;;;18.80;95900.00;;;;8314156;28;20221;-69
2023/09/18 03:15:07;;;;;;;12.32;7.70;;;;;18.80;95908.00;;;;8317308;28;20641;-69
2023/09/18 03:19:21;;;;;;;9.10;7.30;;;;;18.80;95904.00;;;;8318949;28;20284;-69
2023/09/18 03:23:24;;;;;;;9.82;7.53;;;;;18.80;95901.00;;;;8319370;28;20716;-69
2023/09/18 03:27:31;;;;;;;11.02;8.18;;;;;18.70;95904.00;;;;8310880;28;20205;-70
2023/09/18 03:31:34;;;;;;;10.20;7.72;;;;;18.70;95893.00;;;;8319919;28;20263;-69
2023/09/18 03:35:50;;;;;;;13.65;7.82;;;;;18.60;95880.00;;;;8318107;28;20241;-69
2023/09/18 03:39:53;;;;;;;9.93;8.10;;;;;18.60;95868.00;;;;8317471;28;20308;-69
2023/09/18 03:43:59;;;;;;;8.98;7.53;;;;;18.70;95860.00;;;;8311847;28;20283;-69
2023/09/18 03:48:03;;;;;;;10.18;7.72;;;;;18.60;95847.00;;;;8311782;28;20213;-69
2023/09/18 03:52:08;;;;;;;11.75;7.60;;;;;18.60;95847.00;;;;8315514;28;20248;-69
2023/09/18 03:56:13;;;;;;;11.80;8.23;;;;;18.60;95832.00;;;;8314043;28;20205;-69
2023/09/18 04:00:17;;;;;;;8.40;7.35;;;;;18.50;95832.00;;;;8312042;28;20201;-69
2023/09/18 04:04:22;;;;;;;13.07;7.90;;;;;18.50;95826.00;;;;8313241;28;20237;-70
2023/09/18 04:08:27;;;;;;;9.30;7.50;;;;;18.50;95821.00;;;;8317655;28;20792;-70
2023/09/18 04:12:30;;;;;;;10.48;7.65;;;;;18.40;95839.00;;;;8317079;28;20316;-70
2023/09/18 04:16:35;;;;;;;10.23;8.18;;;;;18.40;95825.00;;;;8313522;28;20288;-69
2023/09/18 04:20:40;;;;;;;8.85;7.90;;;;;18.40;95811.00;;;;8317161;28;20705;-70
2023/09/18 04:24:45;;;;;;;14.68;8.50;;;;;18.40;95803.00;;;;8316408;28;20209;-69
2023/09/18 04:28:49;;;;;;;13.32;8.95;;;;;18.30;95804.00;;;;8316329;28;20204;-69
2023/09/18 04:32:54;;;;;;;11.15;8.75;;;;;18.30;95810.00;;;;8314844;28;20234;-69
2023/09/18 04:37:00;;;;;;;9.85;8.30;;;;;18.30;95809.00;;;;8312929;28;20204;-69
2023/09/18 04:41:06;;;;;;;10.25;8.23;;;;;18.30;95813.00;;;;8317041;28;20229;-70
2023/09/18 04:45:13;;;;;;;12.07;8.77;;;;;18.30;95812.00;;;;8313662;28;20198;-69
2023/09/18 04:49:19;;;;;;;11.25;8.57;;;;;18.40;95809.00;;;;8308138;28;20204;-65
2023/09/18 04:53:22;;;;;;;9.82;8.18;;;;;18.30;95801.00;;;;8315371;28;20211;-65
2023/09/18 04:57:29;;;;;;;12.05;8.55;;;;;18.40;95804.00;;;;8313561;28;20666;-65
2023/09/18 05:01:33;;;;;;;11.18;8.50;;;;;18.40;95796.00;;;;8312566;28;20198;-65
2023/09/18 05:05:40;;;;;;;9.75;8.05;;;;;18.40;95796.00;;;;8311408;28;20308;-65
2023/09/18 05:09:46;;;;;;;11.05;7.90;;;;;18.60;95794.00;;;;8303723;28;20202;-65
2023/09/18 05:13:53;;;;;;;11.27;8.18;;;;;18.70;95797.00;;;;8307099;28;20204;-65
2023/09/18 05:18:03;;;;;;;12.82;8.45;;;;;18.80;95790.00;;;;8304793;28;20288;-65
2023/09/18 05:22:07;;;;;;;12.02;8.02;;;;;18.80;95802.00;;;;8307624;28;20205;-66
2023/09/18 05:26:12;;;;;;;10.82;8.15;;;;;18.90;95813.00;;;;8309962;28;20308;-65
2023/09/18 05:30:21;;;;;;;13.68;8.02;;;;;18.90;95801.00;;;;8304434;28;20283;-65
2023/09/18 05:34:28;;;;;;;10.20;8.13;;;;;19.00;95801.00;;;;8308044;28;20209;-65
2023/09/18 05:38:31;;;;;;;11.95;7.53;;;;;19.10;95795.00;;;;8311005;28;20201;-65
2023/09/18 05:42:38;;;;;;;8.70;7.55;;;;;19.20;95780.00;;;;8307332;28;20355;-65
2023/09/18 05:46:42;;;;;;;9.60;7.60;;;;;19.20;95786.00;;;;8313859;28;20198;-65
2023/09/18 05:50:48;;;;;;;11.07;7.45;;;;;19.30;95808.00;;;;8312336;28;20714;-65
2023/09/18 05:54:53;;;;;;;12.68;7.75;;;;;19.40;95804.00;;;;8311603;28;20221;-65
2023/09/18 05:58:57;;;;;;;13.02;7.30;;;;;19.50;95804.00;;;;8302325;28;20197;-65
2023/09/18 06:03:02;;;;;;;11.00;6.97;;;;;19.70;95809.00;;;;8301985;28;20225;-65
2023/09/18 06:07:06;;;;;;;8.85;7.13;;;;;19.90;95802.00;;;;8300140;28;20213;-64
2023/09/18 06:11:09;;;;;;;8.50;6.47;;;;;20.20;95786.00;;;;8303670;28;20319;-64
2023/09/18 06:15:13;;;;;;;7.50;6.45;;;;;20.50;95786.00;;;;8304887;28;20205;-65
2023/09/18 06:19:21;;;;;;;8.13;6.68;;;;;20.70;95804.00;;;;8300913;28;20224;-65
2023/09/18 06:23:26;;;;;;;8.18;6.72;;;;;21.10;95799.00;;;;8309037;28;20236;-65
2023/09/18 06:27:29;;;;;;;6.90;6.18;;;;;21.40;95798.00;;;;8303593;28;20208;-65
2023/09/18 06:31:32;;;;;;;8.93;6.40;;;;;21.50;95789.00;;;;8307014;28;20236;-65
2023/09/18 06:35:38;;;;;;;10.88;6.32;;;;;21.70;95796.00;;;;8302449;28;21003;-65
2023/09/18 06:39:43;;;;;;;8.82;5.95;;;;;21.80;95800.00;;;;8301531;28;20216;-65
2023/09/18 06:43:47;;;;;;;10.35;6.75;;;;;21.90;95829.00;;;;8301687;28;20232;-65
2023/09/18 06:47:50;;;;;;;14.98;5.60;;;;;21.90;95837.00;;;;8304219;28;20387;-65
2023/09/18 06:51:54;;;;;;;7.30;6.20;;;;;21.80;95856.00;;;;8312257;28;20279;-65
2023/09/18 06:55:59;;;;;;;10.65;6.15;;;;;21.60;95873.00;;;;8311092;28;20201;-65
2023/09/18 07:00:04;;;;;;;8.68;6.07;;;;;21.40;95858.00;;;;8307681;28;20772;-67
2023/09/18 07:04:07;;;;;;;6.78;6.13;;;;;21.40;95847.00;;;;8307067;28;20221;-64
2023/09/18 07:08:12;;;;;;;9.90;6.30;;;;;21.50;95839.00;;;;8314403;28;20208;-64
2023/09/18 07:12:20;;;;;;;9.63;6.22;;;;;21.50;95852.00;;;;8310367;28;20299;-64
2023/09/18 07:16:24;;;;;;;6.57;5.97;;;;;21.40;95839.00;;;;8310590;28;20202;-64
2023/09/18 07:20:27;;;;;;;8.40;6.50;;;;;21.50;95836.00;;;;8315381;28;20233;-63
2023/09/18 07:24:33;;;;;;;8.55;6.28;;;;;21.70;95852.00;;;;8305345;28;20200;-63
2023/09/18 07:28:38;;;;;;;7.50;6.30;;;;;21.80;95850.00;;;;8306276;28;20202;-63
2023/09/18 07:32:42;;;;;;;8.07;6.70;;;;;22.00;95847.00;;;;8314541;28;20225;-63
2023/09/18 07:36:46;;;;;;;6.95;6.25;;;;;22.10;95847.00;;;;8313127;28;21094;-64
2023/09/18 07:40:51;;;;;;;9.55;6.05;;;;;22.20;95845.00;;;;8312697;28;20205;-63
2023/09/18 07:44:58;;;;;;;6.53;5.82;;;;;22.40;95849.00;;;;8304484;28;20289;-63
2023/09/18 07:49:01;;;;;;;8.13;5.88;;;;;22.50;95852.00;;;;8311289;28;20812;-64
2023/09/18 07:53:04;;;;;;;8.07;5.72;;;;;22.70;95853.00;;;;8307993;28;20225;-64
2023/09/18 07:57:11;;;;;;;7.07;5.13;;;;;23.00;95843.00;;;;8308791;28;20829;-64
2023/09/18 08:01:17;;;;;;;6.43;5.35;;;;;23.20;95863.00;;;;8303081;28;20237;-63
2023/09/18 08:05:20;;;;;;;7.15;5.50;;;;;23.60;95868.00;;;;8311273;28;20235;-64
2023/09/18 08:09:23;;;;;;;6.03;5.43;;;;;23.70;95879.00;;;;8310979;28;20204;-64
2023/09/18 08:13:33;;;;;;;9.30;5.90;;;;;23.90;95885.00;;;;8306733;28;20225;-65
2023/09/18 08:17:36;;;;;;;5.68;5.07;;;;;24.10;95874.00;;;;8305235;28;20227;-64
2023/09/18 08:21:43;;;;;;;6.20;4.70;;;;;24.50;95862.00;;;;8305123;28;21430;-64
2023/09/18 08:25:51;;;;;;;8.30;5.68;;;;;25.00;95853.00;;;;8304166;28;20200;-64
2023/09/18 08:29:58;;;;;;;8.30;4.93;;;;;25.20;95847.00;;;;8299722;28;20276;-64
2023/09/18 08:34:04;;;;;;;5.10;4.60;;;;;25.60;95844.00;;;;8304506;28;20320;-64
2023/09/18 08:38:08;;;;;;;6.15;4.88;;;;;26.10;95851.00;;;;8298878;28;20828;-63
2023/09/18 08:42:21;;;;;;;9.23;4.43;;;;;26.40;95833.00;;;;8306922;28;20202;-64
2023/09/18 08:46:26;;;;;;;6.85;4.07;;;;;26.60;95826.00;;;;8301907;28;20767;-64
2023/09/18 08:50:35;;;;;;;5.43;4.60;;;;;26.70;95834.00;;;;8305332;28;20196;-64
2023/09/18 08:54:38;;;;;;;7.47;4.32;;;;;27.10;95841.00;;;;8302614;28;20221;-65
2023/09/18 08:58:42;;;;;;;8.02;4.20;;;;;27.90;95838.00;;;;8301898;28;20205;-65
2023/09/18 09:02:50;;;;;;;8.27;4.47;;;;;28.40;95836.00;;;;8300101;28;20284;-64
2023/09/18 09:06:59;;;;;;;9.52;4.22;;;;;28.70;95841.00;;;;8306745;28;20205;-65
2023/09/18 09:11:07;;;;;;;11.85;4.38;;;;;29.20;95857.00;;;;8298374;28;20297;-67
2023/09/18 09:15:12;;;;;;;6.80;3.55;;;;;28.80;95859.00;;;;8298224;28;20609;-65
2023/09/18 09:19:35;;;;;;;9.90;4.07;;;;;29.00;95847.00;;;;8307539;28;20198;-66
2023/09/18 09:23:53;;;;;;;11.85;3.65;;;;;29.00;95851.00;;;;8301493;28;20197;-66
2023/09/18 09:27:57;;;;;;;10.13;3.83;;;;;29.70;95849.00;;;;8299059;28;20236;-65
2023/09/18 09:32:13;;;;;;;5.22;3.65;;;;;30.60;95850.00;;;;8300743;28;20232;-66
2023/09/18 09:36:20;;;;;;;7.80;4.30;;;;;31.40;95852.00;;;;8296065;28;21197;-66
2023/09/18 09:40:25;;;;;;;10.25;3.63;;;;;32.10;95853.00;;;;8298278;28;20205;-66
2023/09/18 09:44:33;;;;;;;8.40;3.75;;;;;32.40;95852.00;;;;8297363;28;20566;-66
2023/09/18 09:48:39;;;;;;;5.88;3.28;;;;;32.50;95834.00;;;;8299740;28;20201;-66
2023/09/18 09:52:49;;;;;;;12.82;3.53;;;;;32.60;95827.00;;;;8302667;28;20460;-66
2023/09/18 09:56:53;;;;;;;12.23;4.15;;;;;33.10;95838.00;;;;8302712;28;20310;-66
2023/09/18 10:01:09;;;;;;;7.95;3.88;;;;;33.10;95820.00;;;;8300580;28;20724;-67
2023/09/18 10:05:16;;;;;;;14.60;4.10;;;;;32.70;95825.00;;;;8300560;28;20229;-68
2023/09/18 10:09:22;;;;;;;10.80;3.22;;;;;32.90;95822.00;;;;8292368;28;20202;-66
2023/09/18 10:13:41;;;;;;;8.30;3.45;;;;;33.10;95825.00;;;;8301902;28;20947;-67
2023/09/18 10:17:49;;;;;;;12.23;3.38;;;;;33.20;95834.00;;;;8301437;28;20682;-67
2023/09/18 10:22:10;;;;;;;10.15;2.92;;;;;33.30;95840.00;;;;8301602;28;20208;-66
2023/09/18 10:26:25;;;;;;;10.70;4.03;;;;;32.80;95843.00;;;;8301055;28;20224;-66
2023/09/18 10:30:30;;;;;;;10.05;3.45;;;;;32.00;95844.00;;;;8297157;28;20213;-66
2023/09/18 10:34:37;;;;;;;9.65;3.08;;;;;31.30;95838.00;;;;8304946;28;20224;-66
2023/09/18 10:38:41;;;;;;;7.75;2.63;;;;;31.10;95849.00;;;;8298228;28;20208;-66
2023/09/18 10:42:50;;;;;;;6.25;2.40;;;;;31.00;95842.00;;;;8303976;28;21770;-65
2023/09/18 10:46:54;;;;;;;9.90;3.15;;;;;30.90;95843.00;;;;8307405;28;20232;-65
2023/09/18 10:50:58;;;;;;;8.30;2.17;;;;;30.70;95846.00;;;;8296565;28;20217;-66
2023/09/18 10:55:07;;;;;;;12.35;2.70;;;;;30.60;95845.00;;;;8293882;28;20236;-65
2023/09/18 10:59:16;;;;;;;10.30;2.35;;;;;30.40;95843.00;;;;8303543;28;20726;-65
2023/09/18 11:03:23;;;;;;;8.50;2.60;;;;;30.30;95854.00;;;;8303905;28;20229;-65
2023/09/18 11:07:27;;;;;;;6.43;2.55;;;;;30.10;95858.00;;;;8299533;28;20213;-66
2023/09/18 11:11:40;;;;;;;8.60;2.75;;;;;29.90;95870.00;;;;8301408;28;20871;-65
2023/09/18 11:15:45;;;;;;;5.80;2.60;;;;;29.70;95863.00;;;;8300336;28;20626;-65
2023/09/18 11:19:50;;;;;;;9.45;2.70;;;;;29.40;95876.00;;;;8295326;28;20198;-66
2023/09/18 11:24:01;;;;;;;8.48;2.75;;;;;29.50;95867.00;;;;8295587;28;20699;-67
2023/09/18 11:28:07;;;;;;;9.13;2.50;;;;;29.80;95869.00;;;;8295439;28;20202;-67
2023/09/18 11:32:12;;;;;;;8.50;3.05;;;;;30.00;95875.00;;;;8297352;28;20317;-66
2023/09/18 11:36:30;;;;;;;9.00;2.80;;;;;30.00;95882.00;;;;8298808;28;20193;-66
2023/09/18 11:40:38;;;;;;;9.68;3.25;;;;;29.90;95882.00;;;;8328844;28;20713;-66
2023/09/18 11:44:43;;;;;;;9.70;2.70;;;;;29.80;95890.00;;;;8334245;28;20237;-66
2023/09/18 11:48:53;;;;;;;7.80;2.33;;;;;29.90;95892.00;;;;8335671;28;20200;-67
2023/09/18 11:52:58;;;;;;;6.88;2.60;;;;;30.00;95882.00;;;;8333608;28;20317;-66
2023/09/18 11:57:07;;;;;;;10.13;2.63;;;;;29.90;95900.00;;;;8335036;28;20510;-66
2023/09/18 12:01:23;;;;;;;4.70;2.28;;;;;29.80;95890.00;;;;8334177;28;20236;-66
2023/09/18 12:05:30;;;;;;;10.90;2.28;;;;;29.90;95897.00;;;;8336096;28;20201;-65
2023/09/18 12:09:34;;;;;;;3.67;2.08;;;;;29.70;95916.00;;;;8334355;28;20652;-66
2023/09/18 12:13:41;;;;;;;9.93;2.42;;;;;29.40;95904.00;;;;8334620;28;20221;-66
2023/09/18 12:17:47;;;;;;;10.63;2.10;;;;;29.10;95923.00;;;;8333316;28;20193;-66
2023/09/18 12:21:56;;;;;;;2.38;1.52;;;;;29.00;95910.00;;;;8334732;28;20631;-65
2023/09/18 12:26:01;;;;;;;6.80;1.63;;;;;28.80;95908.00;;;;8334816;28;20223;-66
2023/09/18 12:30:06;;;;;;;6.40;1.90;;;;;28.70;95925.00;;;;8332379;28;20205;-66
2023/09/18 12:34:15;;;;;;;3.67;1.67;;;;;28.90;95931.00;;;;8335536;28;20225;-66
2023/09/18 12:38:25;;;;;;;4.10;1.30;;;;;28.60;95932.00;;;;8334807;28;20656;-67
2023/09/18 12:42:32;;;;;;;4.57;1.75;;;;;28.10;95938.00;;;;8334405;28;20272;-66
2023/09/18 12:46:42;;;;;;;7.82;2.75;;;;;27.80;95937.00;;;;8333551;28;20280;-66
2023/09/18 12:50:46;;;;;;;4.05;1.60;;;;;27.60;95942.00;;;;8330283;28;20547;-66
2023/09/18 12:54:54;;;;;;;3.58;1.35;;;;;27.40;95947.00;;;;8331783;28;20229;-66
2023/09/18 12:59:03;;;;;;;6.10;1.40;;;;;27.20;95951.00;;;;8333177;28;20205;-66
2023/09/18 13:03:20;;;;;;;3.58;1.95;;;;;26.80;95945.00;;;;8333210;28;20235;-66
2023/09/18 13:07:26;;;;;;;6.30;1.75;;;;;26.40;95961.00;;;;8331268;28;20197;-67
2023/09/18 13:11:32;;;;;;;2.92;1.50;;;;;26.20;95964.00;;;;8333946;28;20224;-66
2023/09/18 13:15:40;;;;;;;5.00;1.58;;;;;26.00;95973.00;;;;8333486;28;20260;-66
2023/09/18 13:19:47;;;;;;;1.98;1.30;;;;;25.80;95988.00;;;;8333432;28;20512;-66
2023/09/18 13:23:51;;;;;;;2.85;1.27;;;;;25.60;95999.00;;;;8333118;28;20296;-66
2023/09/18 13:28:01;;;;;;;2.60;1.40;;;;;25.40;96020.00;;;;8332909;28;20196;-66
2023/09/18 13:32:05;;;;;;;2.00;1.23;;;;;25.00;96022.00;;;;8332231;28;20194;-67
2023/09/18 13:36:08;;;;;;;1.70;1.20;;;;;24.60;96035.00;;;;8332734;28;20313;-67
2023/09/18 13:40:12;;;;;;;2.78;1.20;;;;;24.20;96031.00;;;;8331970;28;20194;-67
2023/09/18 13:44:19;;;;;;;3.97;1.33;;;;;23.80;96035.00;;;;8331073;28;20193;-66
2023/09/18 13:48:25;;;;;;;2.10;1.63;;;;;23.50;96047.00;;;;8331681;28;20535;-66
2023/09/18 13:52:28;;;;;;;3.03;1.27;;;;;23.30;96059.00;;;;8331859;28;20239;-66
2023/09/18 13:56:32;;;;;;;1.27;1.17;;;;;22.80;96063.00;;;;8330044;28;20260;-66
2023/09/18 14:00:38;;;;;;;0.90;0.90;;;;;22.00;96061.00;;;;8330054;28;20631;-66
2023/09/18 14:04:42;;;;;;;2.53;1.65;;;;;21.20;96051.00;;;;8330441;28;20217;-68
2023/09/18 14:08:45;;;;;;;1.48;1.00;;;;;20.50;96050.00;;;;8330612;28;20610;-66
2023/09/18 14:12:49;;;;;;;1.92;1.00;;;;;20.00;96046.00;;;;8331760;28;20618;-65
2023/09/18 14:16:54;;;;;;;1.17;1.10;;;;;19.60;96056.00;;;;8331456;28;20202;-64
2023/09/18 14:21:02;;;;;;;2.15;1.30;;;;;19.20;96045.00;;;;8329140;28;20192;-64
2023/09/18 14:25:12;;;;;;;2.33;1.23;;;;;18.90;96033.00;;;;8332562;28;20197;-63
2023/09/18 14:29:17;;;;;;;3.40;1.55;;;;;18.70;96026.00;;;;8330399;28;20228;-63
2023/09/18 14:33:25;;;;;;;1.83;1.38;;;;;18.60;96016.00;;;;8331396;28;20547;-64
2023/09/18 14:37:28;;;;;;;1.60;1.45;;;;;18.60;96025.00;;;;8332541;28;20182;-64
2023/09/18 14:41:34;;;;;;;3.90;1.88;;;;;18.60;96025.00;;;;8330880;28;20240;-65
2023/09/18 14:45:38;;;;;;;3.40;1.30;;;;;18.60;96021.00;;;;8330826;28;20201;-65
2023/09/18 14:49:48;;;;;;;5.03;1.60;;;;;18.70;96023.00;;;;8331696;28;20212;-66
2023/09/18 14:53:56;;;;;;;3.65;1.60;;;;;18.70;96011.00;;;;8331369;28;20213;-65
2023/09/18 14:58:01;;;;;;;5.25;1.73;;;;;18.80;95995.00;;;;8330220;28;20601;-66
2023/09/18 15:02:04;;;;;;;1.77;1.45;;;;;18.70;95997.00;;;;8331569;28;20210;-66
2023/09/18 15:06:09;;;;;;;2.30;1.20;;;;;18.60;95990.00;;;;8331488;28;20205;-64
2023/09/18 15:10:13;;;;;;;2.85;1.40;;;;;18.50;95984.00;;;;8333149;28;20197;-64
2023/09/18 15:14:20;;;;;;;3.53;1.60;;;;;18.40;95989.00;;;;8336692;28;20228;-64
2023/09/18 15:18:23;;;;;;;5.03;1.45;;;;;18.40;95978.00;;;;8336299;28;20708;-64
2023/09/18 15:22:28;;;;;;;1.65;1.55;;;;;18.50;95983.00;;;;8337307;28;20205;-64
2023/09/18 15:26:38;;;;;;;2.60;1.50;;;;;18.70;95977.00;;;;8336443;28;20228;-65
2023/09/18 15:30:42;;;;;;;3.70;1.52;;;;;18.90;95961.00;;;;8337487;28;20255;-65
2023/09/18 15:34:48;;;;;;;1.40;1.30;;;;;19.00;95984.00;;;;8334034;28;20311;-66
2023/09/18 15:38:54;;;;;;;3.00;1.38;;;;;18.80;95985.00;;;;8337065;28;20197;-66
2023/09/18 15:43:05;;;;;;;1.67;1.40;;;;;18.90;95983.00;;;;8334966;28;20201;-66
2023/09/18 15:47:14;;;;;;;2.13;1.50;;;;;18.70;95974.00;;;;8336991;28;20202;-66
2023/09/18 15:51:19;;;;;;;5.90;1.67;;;;;18.70;95963.00;;;;8334997;28;20190;-66
2023/09/18 15:55:27;;;;;;;2.85;1.50;;;;;18.60;95949.00;;;;8335937;28;20312;-66
2023/09/18 15:59:32;;;;;;;3.00;1.60;;;;;18.60;95946.00;;;;8333832;28;20190;-67
2023/09/18 16:03:36;;;;;;;4.82;1.60;;;;;18.60;95940.00;;;;8334605;28;20221;-67
2023/09/18 16:07:41;;;;;;;2.15;1.60;;;;;18.60;95952.00;;;;8335634;28;20394;-67
2023/09/18 16:11:46;;;;;;;5.70;1.70;;;;;18.60;95976.00;;;;8335692;28;20194;-67
2023/09/18 16:15:51;;;;;;;2.95;1.65;;;;;18.60;95972.00;;;;8349578;28;20217;-67
2023/09/18 16:19:55;;;;;;;5.65;1.98;;;;;18.60;95973.00;;;;8335196;28;20204;-67
2023/09/18 16:23:58;;;;;;;3.75;2.40;;;;;18.40;95974.00;;;;8333793;28;20201;-67
2023/09/18 16:28:04;;;;;;;3.22;2.08;;;;;18.40;95987.00;;;;8335396;28;20239;-67
2023/09/18 16:32:08;;;;;;;3.25;2.05;;;;;18.30;95988.00;;;;8334658;28;20194;-67
2023/09/18 16:36:11;;;;;;;2.03;1.88;;;;;18.20;95977.00;;;;8335652;28;20341;-67
2023/09/18 16:40:19;;;;;;;8.93;2.53;;;;;18.10;95959.00;;;;8335257;28;20201;-67
2023/09/18 16:44:26;;;;;;;4.97;2.13;;;;;18.10;95958.00;;;;8334148;28;20243;-68
2023/09/18 16:48:30;;;;;;;3.30;2.45;;;;;18.10;95954.00;;;;8335133;28;20590;-66
2023/09/18 16:52:35;;;;;;;7.82;2.78;;;;;18.00;95957.00;;;;8334760;28;20204;-66
2023/09/18 16:56:38;;;;;;;9.10;2.85;;;;;18.00;95963.00;;;;8334995;28;20221;-67
2023/09/18 17:00:44;;;;;;;7.18;3.60;;;;;18.00;95957.00;;;;8333685;28;20236;-68
2023/09/18 17:04:47;;;;;;;6.45;3.50;;;;;18.10;95960.00;;;;8333872;28;20253;-68
2023/09/18 17:08:59;;;;;;;7.50;4.10;;;;;18.10;95935.00;;;;8333703;28;20200;-68
2023/09/18 17:13:03;;;;;;;5.75;4.07;;;;;18.10;95932.00;;;;8333026;28;20221;-68
2023/09/18 17:17:08;;;;;;;8.43;5.43;;;;;18.10;95918.00;;;;8333053;28;20253;-67
2023/09/18 17:21:15;;;;;;;9.77;5.72;;;;;18.00;95906.00;;;;8333774;28;20400;-68
2023/09/18 17:25:18;;;;;;;10.80;5.75;;;;;18.10;95906.00;;;;8333964;28;20579;-68
2023/09/18 17:29:22;;;;;;;9.93;5.13;;;;;18.10;95904.00;;;;8333267;28;20240;-67
2023/09/18 17:33:30;;;;;;;9.93;4.93;;;;;18.10;95912.00;;;;8332673;28;20200;-67
2023/09/18 17:37:33;;;;;;;6.22;4.75;;;;;18.10;95911.00;;;;8332844;28;20221;-67
2023/09/18 17:41:40;;;;;;;8.88;4.47;;;;;18.10;95916.00;;;;8333040;28;20193;-67
2023/09/18 17:45:43;;;;;;;8.88;4.82;;;;;18.10;95915.00;;;;8332820;28;20276;-67
2023/09/18 17:49:50;;;;;;;13.50;5.50;;;;;18.10;95907.00;;;;8331132;28;20251;-67
2023/09/18 17:53:55;;;;;;;11.18;5.72;;;;;18.00;95910.00;;;;8331819;28;20237;-67
2023/09/18 17:57:59;;;;;;;10.95;6.18;;;;;18.00;95916.00;;;;8332231;28;20229;-67
2023/09/18 18:02:04;;;;;;;11.80;5.95;;;;;18.00;95920.00;;;;8332132;28;20527;-66
2023/09/18 18:06:14;;;;;;;15.13;6.15;;;;;17.90;95927.00;;;;8332574;28;20523;-67
2023/09/18 18:10:17;;;;;;;13.23;5.80;;;;;17.80;95934.00;;;;8331784;28;20193;-67
2023/09/18 18:14:21;;;;;;;9.77;5.85;;;;;17.70;95938.00;;;;8330390;28;20208;-67
2023/09/18 18:18:25;;;;;;;11.23;5.47;;;;;17.60;95941.00;;;;8328210;28;20198;-67
2023/09/18 18:22:31;;;;;;;13.05;5.70;;;;;17.50;95936.00;;;;8332665;28;20193;-66
2023/09/18 18:26:41;;;;;;;13.25;5.68;;;;;17.40;95916.00;;;;8332423;28;20182;-67
2023/09/18 18:30:49;;;;;;;12.98;5.80;;;;;17.30;95928.00;;;;8332131;28;20194;-67
2023/09/18 18:34:55;;;;;;;16.05;5.25;;;;;17.30;95936.00;;;;8331832;28;20564;-68
2023/09/18 18:39:04;;;;;;;12.27;5.65;;;;;17.20;95938.00;;;;8332030;28;20623;-67
2023/09/18 18:43:08;;;;;;;14.10;5.60;;;;;17.10;95933.00;;;;8331319;28;20178;-67
2023/09/18 18:47:12;;;;;;;10.52;4.53;;;;;17.00;95933.00;;;;8336772;28;20200;-67
2023/09/18 18:51:17;;;;;;;8.00;4.70;;;;;17.00;95920.00;;;;8338591;28;20285;-66
2023/09/18 18:55:31;;;;;;;10.50;6.00;;;;;16.90;95941.00;;;;8338211;28;20638;-67
2023/09/18 18:59:35;;;;;;;13.77;5.43;;;;;16.90;95948.00;;;;8337821;28;20193;-68
2023/09/18 19:03:44;;;;;;;10.88;5.03;;;;;16.90;95939.00;;;;8337660;28;20263;-68
2023/09/18 19:07:52;;;;;;;10.52;5.53;;;;;16.90;95934.00;;;;8338482;28;20289;-67
2023/09/18 19:11:59;;;;;;;10.95;5.00;;;;;16.90;95941.00;;;;8337579;28;20673;-65
2023/09/18 19:16:03;;;;;;;14.20;5.82;;;;;16.80;95935.00;;;;8336149;28;20551;-68
2023/09/18 19:20:10;;;;;;;11.10;5.68;;;;;16.80;95939.00;;;;8337245;28;20200;-68
2023/09/18 19:24:15;;;;;;;10.00;5.47;;;;;16.80;95934.00;;;;8335507;28;20198;-68
2023/09/18 19:28:25;;;;;;;14.82;5.15;;;;;16.80;95932.00;;;;8336756;28;20204;-66
2023/09/18 19:32:32;;;;;;;14.73;5.43;;;;;16.80;95932.00;;;;8336415;28;20229;-66
2023/09/18 19:36:38;;;;;;;9.23;4.85;;;;;16.80;95928.00;;;;8334672;28;20260;-67
2023/09/18 19:40:44;;;;;;;15.02;4.95;;;;;16.80;95920.00;;;;8336330;28;20197;-66
2023/09/18 19:44:50;;;;;;;9.70;4.68;;;;;16.80;95916.00;;;;8337246;28;20577;-67
2023/09/18 19:48:53;;;;;;;12.07;4.95;;;;;16.80;95925.00;;;;8336512;28;20193;-67
2023/09/18 19:53:00;;;;;;;11.05;5.05;;;;;16.80;95923.00;;;;8336808;28;20626;-67
2023/09/18 19:57:03;;;;;;;8.10;5.40;;;;;16.80;95915.00;;;;8335438;28;20260;-67
2023/09/18 20:01:08;;;;;;;13.35;5.50;;;;;16.80;95907.00;;;;8335781;28;20198;-66
2023/09/18 20:05:15;;;;;;;11.50;4.75;;;;;16.80;95918.00;;;;8336267;28;20598;-66
2023/09/18 20:09:18;;;;;;;9.57;4.88;;;;;16.70;95914.00;;;;8334771;28;20635;-66
2023/09/18 20:13:22;;;;;;;12.05;4.55;;;;;16.80;95894.00;;;;8335279;28;20285;-67
2023/09/18 20:17:26;;;;;;;17.48;4.82;;;;;16.80;95908.00;;;;8335126;28;20264;-67
2023/09/18 20:21:30;;;;;;;9.43;4.85;;;;;16.70;95906.00;;;;8334990;28;20190;-67
2023/09/18 20:25:34;;;;;;;7.78;4.53;;;;;16.70;95912.00;;;;8335065;28;20287;-67
2023/09/18 20:29:39;;;;;;;11.18;4.90;;;;;16.70;95923.00;;;;8334830;28;20201;-67